Map

Track Data

SID SEASON NUMBER BASIN SUBBASIN NAME ISO_TIME NATURE LAT LON WMO_WIND WMO_PRES WMO_AGENCY TRACK_TYPE DIST2LAND LANDFALL IFLAG USA_AGENCY USA_ATCF_ID USA_LAT USA_LON USA_RECORD USA_STATUS USA_WIND USA_PRES USA_SSHS USA_R34_NE USA_R34_SE USA_R34_SW USA_R34_NW USA_R50_NE USA_R50_SE USA_R50_SW USA_R50_NW USA_R64_NE USA_R64_SE USA_R64_SW USA_R64_NW USA_POCI USA_ROCI USA_RMW USA_EYE TOKYO_LAT TOKYO_LON TOKYO_GRADE TOKYO_WIND TOKYO_PRES TOKYO_R50_DIR TOKYO_R50_LONG TOKYO_R50_SHORT TOKYO_R30_DIR TOKYO_R30_LONG TOKYO_R30_SHORT TOKYO_LAND CMA_LAT CMA_LON CMA_CAT CMA_WIND CMA_PRES HKO_LAT HKO_LON HKO_CAT HKO_WIND HKO_PRES NEWDELHI_LAT NEWDELHI_LON NEWDELHI_GRADE NEWDELHI_WIND NEWDELHI_PRES NEWDELHI_CI NEWDELHI_DP NEWDELHI_POCI REUNION_LAT REUNION_LON REUNION_TYPE REUNION_WIND REUNION_PRES REUNION_TNUM REUNION_CI REUNION_RMW REUNION_R34_NE REUNION_R34_SE REUNION_R34_SW REUNION_R34_NW REUNION_R50_NE REUNION_R50_SE REUNION_R50_SW REUNION_R50_NW REUNION_R64_NE REUNION_R64_SE REUNION_R64_SW REUNION_R64_NW BOM_LAT BOM_LON BOM_TYPE BOM_WIND BOM_PRES BOM_TNUM BOM_CI BOM_RMW BOM_R34_NE BOM_R34_SE BOM_R34_SW BOM_R34_NW BOM_R50_NE BOM_R50_SE BOM_R50_SW BOM_R50_NW BOM_R64_NE BOM_R64_SE BOM_R64_SW BOM_R64_NW BOM_ROCI BOM_POCI BOM_EYE BOM_POS_METHOD BOM_PRES_METHOD NADI_LAT NADI_LON NADI_CAT NADI_WIND NADI_PRES WELLINGTON_LAT WELLINGTON_LON WELLINGTON_WIND WELLINGTON_PRES DS824_LAT DS824_LON DS824_STAGE DS824_WIND DS824_PRES TD9636_LAT TD9636_LON TD9636_STAGE TD9636_WIND TD9636_PRES TD9635_LAT TD9635_LON TD9635_WIND TD9635_PRES TD9635_ROCI NEUMANN_LAT NEUMANN_LON NEUMANN_CLASS NEUMANN_WIND NEUMANN_PRES MLC_LAT MLC_LON MLC_CLASS MLC_WIND MLC_PRES USA_GUST BOM_GUST BOM_GUST_PER REUNION_GUST REUNION_GUST_PER USA_SEAHGT USA_SEARAD_NE USA_SEARAD_SE USA_SEARAD_SW USA_SEARAD_NW STORM_SPEED STORM_DIR
1965331N26302 1965 116 NA NA NOT_NAMED 1965-11-26 18:00:00 ET 26.0000 -58.0000 30 hurdat_atl main 1154 1154 O_____________ hurdat_atl AL101965 26.0000 -58.0000 EX 30 -4 24 51
1965331N26302 1965 116 NA NA NOT_NAMED 1965-11-26 21:00:00 ET 26.7443 -56.9650 main 1279 1279 P_____________ AL101965 26.7443 -56.9650 EX 30 -4 23 50
1965331N26302 1965 116 NA NA NOT_NAMED 1965-11-27 00:00:00 ET 27.5000 -56.0000 30 hurdat_atl main 1413 1413 O_____________ hurdat_atl AL101965 27.5000 -56.0000 EX 30 -4 22 46
1965331N26302 1965 116 NA NA NOT_NAMED 1965-11-27 03:00:00 ET 28.2719 -55.1744 main 1531 1531 P_____________ AL101965 28.2719 -55.1744 EX 32 -4 20 41
1965331N26302 1965 116 NA NA NOT_NAMED 1965-11-27 06:00:00 ET 29.0000 -54.5000 35 hurdat_atl main 1634 1634 O_____________ hurdat_atl AL101965 29.0000 -54.5000 EX 35 -4 18 40
1965331N26302 1965 116 NA NA NOT_NAMED 1965-11-27 09:00:00 ET 29.6523 -53.8504 main 1730 1730 P_____________ AL101965 29.6523 -53.8504 EX 37 -4 15 36
1965331N26302 1965 116 NA NA NOT_NAMED 1965-11-27 12:00:00 ET 30.2000 -53.5000 40 hurdat_atl main 1796 1740 O_____________ hurdat_atl AL101965 30.2000 -53.5000 EX 40 -4 11 9
1965331N26302 1965 116 NA NA NOT_NAMED 1965-11-27 15:00:00 ET 30.7275 -53.6502 main 1737 1696 P_____________ AL101965 30.7275 -53.6502 EX 42 -4 9 332
1965331N26302 1965 116 NA NA NOT_NAMED 1965-11-27 18:00:00 ET 31.0000 -54.0000 45 hurdat_atl main 1696 1693 O_____________ hurdat_atl AL101965 31.0000 -54.0000 EX 45 -4 5 289
1965331N26302 1965 116 NA NA NOT_NAMED 1965-11-27 21:00:00 ET 30.8849 -54.1729 main 1700 1700 P_____________ AL101965 30.8849 -54.1729 EX 45 -4 6 207
1965331N26302 1965 116 NA NA NOT_NAMED 1965-11-28 00:00:00 ET 30.5000 -54.3000 45 hurdat_atl main 1740 1714 O_____________ hurdat_atl AL101965 30.5000 -54.3000 EX 45 -4 9 196
1965331N26302 1965 116 NA NA NOT_NAMED 1965-11-28 03:00:00 ET 29.9999 -54.4606 main 1714 1674 P_____________ AL101965 29.9999 -54.4606 EX 45 -4 10 190
1965331N26302 1965 116 NA NA NOT_NAMED 1965-11-28 06:00:00 ET 29.5000 -54.5000 45 hurdat_atl main 1674 1657 O_____________ hurdat_atl AL101965 29.5000 -54.5000 EX 45 -4 8 173
1965331N26302 1965 116 NA NA NOT_NAMED 1965-11-28 09:00:00 ET 29.1898 -54.3397 main 1664 1656 P_____________ AL101965 29.1898 -54.3397 EX 45 -4 7 139
1965331N26302 1965 116 NA NA NOT_NAMED 1965-11-28 12:00:00 ET 29.0000 -54.0000 45 hurdat_atl main 1670 1670 O_____________ hurdat_atl AL101965 29.0000 -54.0000 EX 45 -4 8 114
1965331N26302 1965 116 NA NA NOT_NAMED 1965-11-28 15:00:00 ET 28.8777 -53.5377 main 1699 1699 P_____________ AL101965 28.8777 -53.5377 EX 45 -4 9 103
1965331N26302 1965 116 NA NA NOT_NAMED 1965-11-28 18:00:00 ET 28.8000 -53.0000 45 997 hurdat_atl main 1728 1728 O_____________ hurdat_atl AL101965 28.8000 -53.0000 EX 45 997 -4 9 100
1965331N26302 1965 116 NA NA NOT_NAMED 1965-11-28 21:00:00 ET 28.7075 -52.4851 main 1759 1759 P_____________ AL101965 28.7075 -52.4851 EX 45 -4 9 103
1965331N26302 1965 116 NA NA NOT_NAMED 1965-11-29 00:00:00 ET 28.6000 -52.0000 45 hurdat_atl main 1792 1792 O_____________ hurdat_atl AL101965 28.6000 -52.0000 EX 45 -4 9 107
1965331N26302 1965 116 NA NA NOT_NAMED 1965-11-29 03:00:00 ET 28.4575 -51.5399 main 1825 1818 P_____________ AL101965 28.4575 -51.5399 EX 45 -4 8 113
1965331N26302 1965 116 NA NA NOT_NAMED 1965-11-29 06:00:00 TS 28.3000 -51.2000 45 hurdat_atl main 1836 1836 O_____________ hurdat_atl AL101965 28.3000 -51.2000 TS 45 0 5 122
1965331N26302 1965 116 NA NA NOT_NAMED 1965-11-29 09:00:00 TS 28.1723 -51.0251 main 1846 1834 P_____________ AL101965 28.1723 -51.0251 TS 45 0 3 150
1965331N26302 1965 116 NA NA NOT_NAMED 1965-11-29 12:00:00 TS 28.0000 -51.0000 45 hurdat_atl main 1834 1822 O_____________ hurdat_atl AL101965 28.0000 -51.0000 TS 45 0 4 182
1965331N26302 1965 116 NA NA NOT_NAMED 1965-11-29 15:00:00 TS 27.7375 -51.0550 main 1808 1782 P_____________ AL101965 27.7375 -51.0550 TS 45 0 6 196
1965331N26302 1965 116 NA NA NOT_NAMED 1965-11-29 18:00:00 TS 27.4000 -51.2000 45 hurdat_atl main 1782 1742 O_____________ hurdat_atl AL101965 27.4000 -51.2000 TS 45 0 8 205
1965331N26302 1965 116 NA NA NOT_NAMED 1965-11-29 21:00:00 TS 27.0226 -51.4305 main 1742 1703 P_____________ AL101965 27.0226 -51.4305 TS 45 0 9 204
1965331N26302 1965 116 NA NA NOT_NAMED 1965-11-30 00:00:00 TS 26.6000 -51.6000 45 hurdat_atl main 1703 1681 O_____________ hurdat_atl AL101965 26.6000 -51.6000 TS 45 0 9 188
1965331N26302 1965 116 NA NA NOT_NAMED 1965-11-30 03:00:00 TS 26.1574 -51.5597 main 1681 1669 P_____________ AL101965 26.1574 -51.5597 TS 42 0 9 169
1965331N26302 1965 116 NA NA NOT_NAMED 1965-11-30 06:00:00 TS 25.7000 -51.4000 40 hurdat_atl main 1673 1667 O_____________ hurdat_atl AL101965 25.7000 -51.4000 TS 40 0 10 161
1965331N26302 1965 116 NA NA NOT_NAMED 1965-11-30 09:00:00 TS 25.2575 -51.2150 main 1672 1663 P_____________ AL101965 25.2575 -51.2150 TS 40 0 10 158
1965331N26302 1965 116 NA NA NOT_NAMED 1965-11-30 12:00:00 TS 24.8000 -51.0000 40 hurdat_atl main 1668 1664 O_____________ hurdat_atl AL101965 24.8000 -51.0000 TS 40 0 10 156
1965331N26302 1965 116 NA NA NOT_NAMED 1965-11-30 15:00:00 TS 24.3001 -50.7546 main 1666 1665 P_____________ AL101965 24.3001 -50.7546 TS 37 0 11 160
1965331N26302 1965 116 NA NA NOT_NAMED 1965-11-30 18:00:00 TS 23.8000 -50.6000 35 hurdat_atl main 1667 1653 O_____________ hurdat_atl AL101965 23.8000 -50.6000 TS 35 0 10 173
1965331N26302 1965 116 NA NA NOT_NAMED 1965-11-30 21:00:00 TS 23.3348 -50.6176 main 1650 1618 P_____________ AL101965 23.3348 -50.6176 TS 32 -1 9 192
1965331N26302 1965 116 NA NA NOT_NAMED 1965-12-01 00:00:00 TS 22.9000 -50.8000 30 hurdat_atl main 1618 1587 O_____________ hurdat_atl AL101965 22.9000 -50.8000 TD 30 -1 10 205
1965331N26302 1965 116 NA NA NOT_NAMED 1965-12-01 03:00:00 TS 22.4545 -51.0526 main 1577 1527 P_____________ AL101965 22.4545 -51.0526 TD 30 -1 10 219
1965331N26302 1965 116 NA NA NOT_NAMED 1965-12-01 06:00:00 TS 22.1000 -51.5000 30 hurdat_atl main 1527 1461 O_____________ hurdat_atl AL101965 22.1000 -51.5000 TD 30 -1 12 241
1965331N26302 1965 116 NA NA NOT_NAMED 1965-12-01 09:00:00 TS 21.8603 -52.1905 main 1451 1368 P_____________ AL101965 21.8603 -52.1905 TD 30 -1 14 258
1965331N26302 1965 116 NA NA NOT_NAMED 1965-12-01 12:00:00 TS 21.8000 -53.0000 30 hurdat_atl main 1368 1301 O_____________ hurdat_atl AL101965 21.8000 -53.0000 TD 30 -1 15 272
1965331N26302 1965 116 NA NA NOT_NAMED 1965-12-01 15:00:00 TS 21.9174 -53.7648 main 1291 1232 P_____________ AL101965 21.9174 -53.7648 TD 30 -1 14 286
1965331N26302 1965 116 NA NA NOT_NAMED 1965-12-01 18:00:00 TS 22.2000 -54.5000 30 hurdat_atl main 1232 1185 O_____________ hurdat_atl AL101965 22.2000 -54.5000 TD 30 -1 15 296
1965331N26302 1965 116 NA NA NOT_NAMED 1965-12-01 21:00:00 TS 22.5546 -55.1727 main 1180 1141 P_____________ AL101965 22.5546 -55.1727 TD 30 -1 14 304
1965331N26302 1965 116 NA NA NOT_NAMED 1965-12-02 00:00:00 TS 23.0000 -55.8000 30 hurdat_atl main 1141 1111 O_____________ hurdat_atl AL101965 23.0000 -55.8000 TD 30 -1 15 310
1965331N26302 1965 116 NA NA NOT_NAMED 1965-12-02 03:00:00 TS 23.4905 -56.4041 main 1111 1088 P_____________ AL101965 23.4905 -56.4041 TD 30 -1 15 312
1965331N26302 1965 116 NA NA NOT_NAMED 1965-12-02 06:00:00 TS 24.0000 -57.0000 30 hurdat_atl main 1088 O_____________ hurdat_atl AL101965 24.0000 -57.0000 TD 30 -1 15 313

About IBTrACS Database

This database is a web-friendly format of International Best Track Archive for Climate Stewardship (IBTrACS), a global best track data archive curated by NOAA dating back to 1842.

Updated: 2021-11-26